Alpena — WAV4647 — position and weather

sailwx.info

Track history (hours):
 
Tides and Currents Weather Stations Pressure Air Temp Water Temp Dewpoint Dewpoint Depression Visibility Wind Speed Wind Dir Waves Ship Positions

Alpena

Owner: INLAND LAKES MANAGEMENT, Muskegon, MI. More information available from US FCC via Universal Licensing System and Coast Guard Vessel Documentation Center.

Last reported at 2017-Sep-23 12:00 UTC. Time now 2017-Sep-25 00:41 UTC.
Position N 41°36' W 081°54'.

Length 154 m; draft 7.3 m.

Type: Cargo ship. MMSI: 366893910.

Wind from 200 at 6 knots

Barometer 1021.8 mb
Air temperature 22.0 ° C
Visibility: greater than 10.8 NM

Date/timePositionNaut miles runAvg speedWind from/ knotsBaromVisibWave heightAir tempDewpointWater temp
2017-Sep-23 12:00N 41°36' W 081°54'192 5.7 200 / 61021.810.8 22.0
2017-Sep-22 02:00N 44°42' W 083°00'33 3.3 070 / 121018.4 5.4 21.0
2017-Sep-21 16:00N 45°12' W 083°18'919.4 160 / 81017.6 5.4 18.0
2017-Sep-21 15:33N 45°20' W 083°23'111.6
2017-Sep-21 15:27N 45°21' W 083°24'511.5
2017-Sep-21 15:00N 45°24' W 083°30'611.7
2017-Sep-21 14:30N 45°27' W 083°37'611.6
2017-Sep-21 14:00N 45°29' W 083°45'611.6
2017-Sep-21 13:30N 45°32' W 083°52'611.5
2017-Sep-21 13:00N 45°35' W 083°59'1211.7
2017-Sep-21 11:59N 45°40' W 084°15'511.3
2017-Sep-21 11:30N 45°41' W 084°22'611.8
2017-Sep-21 11:00N 45°43' W 084°30'611.7
2017-Sep-21 10:30N 45°46' W 084°37'611.5
2017-Sep-21 10:00N 45°49' W 084°44'611.5
2017-Sep-21 09:30N 45°49' W 084°52'611.7
2017-Sep-21 09:00N 45°50' W 085°01'510.7
2017-Sep-21 08:30N 45°49' W 085°08'5 9.1
2017-Sep-21 08:00N 45°44' W 085°10'611.8
2017-Sep-21 07:30N 45°40' W 085°15'612.1
2017-Sep-21 07:00N 45°35' W 085°20'612.1
2017-Sep-21 06:30N 45°30' W 085°25'612.1
2017-Sep-21 06:00N 45°25' W 085°31'612.1
2017-Sep-21 05:30N 45°20' W 085°36'612.4
2017-Sep-21 05:00N 45°15' W 085°41'5320.8
2017-Sep-21 05:00N 45°12' W 085°36'715.1 310 / 101014.710.8 21.0
2017-Sep-21 04:30N 45°10' W 085°46'612.2
2017-Sep-21 03:59N 45°05' W 085°52'4711.9
2017-Sep-21 00:00N 44°24' W 086°24'2512.7 230 / 51012.8 5.4 22.0
2017-Sep-20 22:00N 44°00' W 086°36'4912.2 180 / 241012.310.8 24.0 20.0
2017-Sep-20 18:00N 43°12' W 086°24'62 2.5 170 / 81015.710.8 21.0
2017-Sep-19 17:00N 43°00' W 087°48'22 1.3 080 / 151016.4 1.1 18.0
2017-Sep-19 00:00N 43°18' W 087°30'9912.3 050 / 141018.310.8 18.0
2017-Sep-18 16:00N 44°42' W 086°18'3216.0 040 / 101022.610.8 17.0
2017-Sep-18 14:00N 45°06' W 085°48'8 9.5 070 / 101021.810.8 16.0 19.0
2017-Sep-18 13:07N 45°14' W 085°43'112.3
2017-Sep-18 13:00N 45°15' W 085°42'612.2
2017-Sep-18 12:30N 45°20' W 085°37'612.1
2017-Sep-18 12:00N 45°25' W 085°32'612.0
2017-Sep-18 11:30N 45°29' W 085°27'612.1
2017-Sep-18 11:00N 45°34' W 085°22'5343.5
2017-Sep-18 11:00N 45°30' W 085°18'919.3 340 / 101020.810.8 14.0 18.0
2017-Sep-18 10:30N 45°39' W 085°17'612.1
2017-Sep-18 10:00N 45°44' W 085°12'4 8.9
2017-Sep-18 09:30N 45°48' W 085°09'5 9.0
2017-Sep-18 09:00N 45°50' W 085°03'612.1
2017-Sep-18 08:30N 45°50' W 084°54'612.0
2017-Sep-18 08:00N 45°49' W 084°46'611.6
2017-Sep-18 07:30N 45°47' W 084°38'611.8
2017-Sep-18 07:00N 45°44' W 084°31'611.6
2017-Sep-18 06:30N 45°41' W 084°23'510.9
2017-Sep-18 06:00N 45°41' W 084°15'611.7
2017-Sep-18 05:30N 45°38' W 084°08'612.0
2017-Sep-18 05:00N 45°36' W 084°00'712.0
2017-Sep-18 04:24N 45°32' W 083°51'511.9
2017-Sep-18 04:00N 45°30' W 083°45'2133.8
2017-Sep-18 04:00N 45°30' W 083°42'5 8.8 330 / 231019.110.8 17.0
2017-Sep-18 03:25N 45°27' W 083°36'511.8
2017-Sep-18 02:58N 45°25' W 083°29'3015.1
2017-Sep-18 01:00N 45°00' W 083°06'13 1.4 1018.1 5.4 19.0
2017-Sep-17 16:00N 45°12' W 083°12'1042.0 170 / 201017.610.8 19.0
2017-Sep-17 15:45N 45°19' W 083°22'312.1
2017-Sep-17 15:30N 45°22' W 083°25'612.0
2017-Sep-17 15:00N 45°25' W 083°32'612.0
2017-Sep-17 14:30N 45°27' W 083°39'612.0
2017-Sep-17 14:00N 45°30' W 083°47'611.9
2017-Sep-17 13:30N 45°33' W 083°55'611.9
2017-Sep-17 13:00N 45°36' W 084°02'6609.5
2017-Sep-17 13:00N 45°30' W 084°00'1121.6 210 / 151017.5 5.4 20.0
2017-Sep-17 12:28N 45°39' W 084°10'612.1
2017-Sep-17 12:00N 45°41' W 084°17'611.8
2017-Sep-17 11:30N 45°42' W 084°26'612.1
2017-Sep-17 11:00N 45°44' W 084°33'612.1
2017-Sep-17 10:30N 45°48' W 084°41'612.1
2017-Sep-17 10:00N 45°49' W 084°49'612.2
2017-Sep-17 09:30N 45°50' W 084°58'612.1
2017-Sep-17 09:00N 45°51' W 085°06'612.0
2017-Sep-17 08:30N 45°52' W 085°15'612.0
2017-Sep-17 08:00N 45°53' W 085°23'612.0
2017-Sep-17 07:30N 45°53' W 085°32'611.6
2017-Sep-17 07:00N 45°52' W 085°40'612.2
2017-Sep-17 06:30N 45°49' W 085°48'612.2
2017-Sep-17 06:00N 45°46' W 085°55'1312.4
2017-Sep-17 05:00N 45°36' W 086°06'6212.5 1016.8 20.0
2017-Sep-17 00:00N 45°06' W 087°24'22 0.7 170 / 221015.8 5.4 21.0 19.0
2017-Sep-15 16:00N 44°48' W 087°42'1010.4 200 / 111015.6 21.0
2017-Sep-15 15:00N 44°54' W 087°30'2019.9 300 / 61016.3 5.4 20.0
2017-Sep-15 14:00N 45°12' W 087°18'21 9.4 200 / 151015.710.8 20.0
2017-Sep-15 11:44N 45°26' W 086°56'311.5
2017-Sep-15 11:29N 45°26' W 086°52'1122.7
2017-Sep-15 11:00N 45°24' W 086°36'3910.6 200 / 181014.710.8 18.0 18.0
2017-Sep-15 07:17N 45°47' W 085°50'311.5
2017-Sep-15 07:00N 45°49' W 085°47'611.3
2017-Sep-15 06:30N 45°51' W 085°39'1211.1
2017-Sep-15 05:24N 45°53' W 085°22'511.6
2017-Sep-15 04:59N 45°52' W 085°15'611.8
2017-Sep-15 04:30N 45°51' W 085°07'611.8
2017-Sep-15 04:00N 45°51' W 084°59'3221.6
2017-Sep-15 04:00N 45°48' W 085°00'714.2 200 / 111014.7 18.0
2017-Sep-15 03:30N 45°50' W 084°50'611.6
2017-Sep-15 03:00N 45°49' W 084°42'611.6
2017-Sep-15 02:30N 45°45' W 084°35'611.6
2017-Sep-15 01:59N 45°42' W 084°28'510.8
2017-Sep-15 01:30N 45°41' W 084°20'510.9
2017-Sep-15 01:00N 45°40' W 084°13'611.8
2017-Sep-15 00:30N 45°38' W 084°05'612.0
2017-Sep-15 00:00N 45°35' W 083°57'612.0
2017-Sep-14 23:30N 45°32' W 083°50'612.0
2017-Sep-14 23:00N 45°30' W 083°42'612.0
2017-Sep-14 22:30N 45°27' W 083°35'612.0
2017-Sep-14 22:00N 45°24' W 083°27'22 2.6
2017-Sep-14 13:40N 45°03' W 083°24'3 7.4
2017-Sep-14 13:17N 45°01' W 083°20'510.6
2017-Sep-14 12:51N 44°58' W 083°15'411.8
2017-Sep-14 12:30N 45°01' W 083°10'611.0
2017-Sep-14 12:00N 45°06' W 083°08'611.2
2017-Sep-14 11:26N 45°12' W 083°12'611.8
2017-Sep-14 10:56N 45°17' W 083°17'511.8
2017-Sep-14 10:30N 45°21' W 083°21'611.9
2017-Sep-14 10:00N 45°26' W 083°25'612.3
2017-Sep-14 09:31N 45°31' W 083°30'612.1
2017-Sep-14 09:00N 45°37' W 083°35'612.0
2017-Sep-14 08:30N 45°42' W 083°39'612.3
2017-Sep-14 08:00N 45°47' W 083°44'612.2
2017-Sep-14 07:30N 45°52' W 083°49'611.9
2017-Sep-14 07:00N 45°57' W 083°54'611.2
2017-Sep-14 06:30N 46°02' W 083°56'510.4
2017-Sep-14 06:00N 46°06' W 084°01'510.7
2017-Sep-14 05:30N 46°10' W 084°05'5 9.9
2017-Sep-14 05:00N 46°14' W 084°10'4 8.5
2017-Sep-14 04:30N 46°18' W 084°13'4 8.5
2017-Sep-14 04:00N 46°22' W 084°13'6 8.5
2017-Sep-14 03:16N 46°28' W 084°17'2 8.4
2017-Sep-14 03:00N 46°30' W 084°19'2 2.5
2017-Sep-14 02:19N 46°30' W 084°21'1 2.2
2017-Sep-14 01:50N 46°30' W 084°23'2 5.6
2017-Sep-14 01:25N 46°29' W 084°26'12 9.0
2017-Sep-14 00:08N 46°34' W 084°41'9 8.2
2017-Sep-13 23:00N 46°42' W 084°48'1218.7 080 / 131007.510.8 20.5 15.5
2017-Sep-13 22:20N 46°50' W 085°02'13012.5
2017-Sep-13 12:00N 47°54' W 087°48'   1007.9 18.0
Track history (hours):
 
Tides and Currents Weather Stations Pressure Air Temp Water Temp Dewpoint Dewpoint Depression Visibility Wind Speed Wind Dir Waves Ship Positions

Alpena

Owner: INLAND LAKES MANAGEMENT, Muskegon, MI. More information available from US FCC via Universal Licensing System and Coast Guard Vessel Documentation Center.

Last reported at 2017-Sep-23 12:00 UTC. Time now 2017-Sep-25 00:41 UTC.
Position N 41°36' W 081°54'.

Length 154 m; draft 7.3 m.

Type: Cargo ship. MMSI: 366893910.

Wind from 200 at 6 knots

Barometer 1021.8 mb
Air temperature 22.0 ° C
Visibility: greater than 10.8 NM

Date/timePositionNaut miles runAvg speedWind from/ knotsBaromVisibWave heightAir tempDewpointWater temp
2017-Sep-23 12:00N 41°36' W 081°54'192 5.7 200 / 61021.810.8 22.0
2017-Sep-22 02:00N 44°42' W 083°00'33 3.3 070 / 121018.4 5.4 21.0
2017-Sep-21 16:00N 45°12' W 083°18'919.4 160 / 81017.6 5.4 18.0
2017-Sep-21 15:33N 45°20' W 083°23'111.6
2017-Sep-21 15:27N 45°21' W 083°24'511.5
2017-Sep-21 15:00N 45°24' W 083°30'611.7
2017-Sep-21 14:30N 45°27' W 083°37'611.6
2017-Sep-21 14:00N 45°29' W 083°45'611.6
2017-Sep-21 13:30N 45°32' W 083°52'611.5
2017-Sep-21 13:00N 45°35' W 083°59'1211.7
2017-Sep-21 11:59N 45°40' W 084°15'511.3
2017-Sep-21 11:30N 45°41' W 084°22'611.8
2017-Sep-21 11:00N 45°43' W 084°30'611.7
2017-Sep-21 10:30N 45°46' W 084°37'611.5
2017-Sep-21 10:00N 45°49' W 084°44'611.5
2017-Sep-21 09:30N 45°49' W 084°52'611.7
2017-Sep-21 09:00N 45°50' W 085°01'510.7
2017-Sep-21 08:30N 45°49' W 085°08'5 9.1
2017-Sep-21 08:00N 45°44' W 085°10'611.8
2017-Sep-21 07:30N 45°40' W 085°15'612.1
2017-Sep-21 07:00N 45°35' W 085°20'612.1
2017-Sep-21 06:30N 45°30' W 085°25'612.1
2017-Sep-21 06:00N 45°25' W 085°31'612.1
2017-Sep-21 05:30N 45°20' W 085°36'612.4
2017-Sep-21 05:00N 45°15' W 085°41'5320.8
2017-Sep-21 05:00N 45°12' W 085°36'715.1 310 / 101014.710.8 21.0
2017-Sep-21 04:30N 45°10' W 085°46'612.2
2017-Sep-21 03:59N 45°05' W 085°52'4711.9
2017-Sep-21 00:00N 44°24' W 086°24'2512.7 230 / 51012.8 5.4 22.0
2017-Sep-20 22:00N 44°00' W 086°36'4912.2 180 / 241012.310.8 24.0 20.0
2017-Sep-20 18:00N 43°12' W 086°24'62 2.5 170 / 81015.710.8 21.0
2017-Sep-19 17:00N 43°00' W 087°48'22 1.3 080 / 151016.4 1.1 18.0
2017-Sep-19 00:00N 43°18' W 087°30'9912.3 050 / 141018.310.8 18.0
2017-Sep-18 16:00N 44°42' W 086°18'3216.0 040 / 101022.610.8 17.0
2017-Sep-18 14:00N 45°06' W 085°48'8 9.5 070 / 101021.810.8 16.0 19.0
2017-Sep-18 13:07N 45°14' W 085°43'112.3
2017-Sep-18 13:00N 45°15' W 085°42'612.2
2017-Sep-18 12:30N 45°20' W 085°37'612.1
2017-Sep-18 12:00N 45°25' W 085°32'612.0
2017-Sep-18 11:30N 45°29' W 085°27'612.1
2017-Sep-18 11:00N 45°34' W 085°22'5343.5
2017-Sep-18 11:00N 45°30' W 085°18'919.3 340 / 101020.810.8 14.0 18.0
2017-Sep-18 10:30N 45°39' W 085°17'612.1
2017-Sep-18 10:00N 45°44' W 085°12'4 8.9
2017-Sep-18 09:30N 45°48' W 085°09'5 9.0
2017-Sep-18 09:00N 45°50' W 085°03'612.1
2017-Sep-18 08:30N 45°50' W 084°54'612.0
2017-Sep-18 08:00N 45°49' W 084°46'611.6
2017-Sep-18 07:30N 45°47' W 084°38'611.8
2017-Sep-18 07:00N 45°44' W 084°31'611.6
2017-Sep-18 06:30N 45°41' W 084°23'510.9
2017-Sep-18 06:00N 45°41' W 084°15'611.7
2017-Sep-18 05:30N 45°38' W 084°08'612.0
2017-Sep-18 05:00N 45°36' W 084°00'712.0
2017-Sep-18 04:24N 45°32' W 083°51'511.9
2017-Sep-18 04:00N 45°30' W 083°45'2133.8
2017-Sep-18 04:00N 45°30' W 083°42'5 8.8 330 / 231019.110.8 17.0
2017-Sep-18 03:25N 45°27' W 083°36'511.8
2017-Sep-18 02:58N 45°25' W 083°29'3015.1
2017-Sep-18 01:00N 45°00' W 083°06'13 1.4 1018.1 5.4 19.0
2017-Sep-17 16:00N 45°12' W 083°12'1042.0 170 / 201017.610.8 19.0
2017-Sep-17 15:45N 45°19' W 083°22'312.1
2017-Sep-17 15:30N 45°22' W 083°25'612.0
2017-Sep-17 15:00N 45°25' W 083°32'612.0
2017-Sep-17 14:30N 45°27' W 083°39'612.0
2017-Sep-17 14:00N 45°30' W 083°47'611.9
2017-Sep-17 13:30N 45°33' W 083°55'611.9
2017-Sep-17 13:00N 45°36' W 084°02'6609.5
2017-Sep-17 13:00N 45°30' W 084°00'1121.6 210 / 151017.5 5.4 20.0
2017-Sep-17 12:28N 45°39' W 084°10'612.1
2017-Sep-17 12:00N 45°41' W 084°17'611.8
2017-Sep-17 11:30N 45°42' W 084°26'612.1
2017-Sep-17 11:00N 45°44' W 084°33'612.1
2017-Sep-17 10:30N 45°48' W 084°41'612.1
2017-Sep-17 10:00N 45°49' W 084°49'612.2
2017-Sep-17 09:30N 45°50' W 084°58'612.1
2017-Sep-17 09:00N 45°51' W 085°06'612.0
2017-Sep-17 08:30N 45°52' W 085°15'612.0
2017-Sep-17 08:00N 45°53' W 085°23'612.0
2017-Sep-17 07:30N 45°53' W 085°32'611.6
2017-Sep-17 07:00N 45°52' W 085°40'612.2
2017-Sep-17 06:30N 45°49' W 085°48'612.2
2017-Sep-17 06:00N 45°46' W 085°55'1312.4
2017-Sep-17 05:00N 45°36' W 086°06'6212.5 1016.8 20.0
2017-Sep-17 00:00N 45°06' W 087°24'22 0.7 170 / 221015.8 5.4 21.0 19.0
2017-Sep-15 16:00N 44°48' W 087°42'1010.4 200 / 111015.6 21.0
2017-Sep-15 15:00N 44°54' W 087°30'2019.9 300 / 61016.3 5.4 20.0
2017-Sep-15 14:00N 45°12' W 087°18'21 9.4 200 / 151015.710.8 20.0
2017-Sep-15 11:44N 45°26' W 086°56'311.5
2017-Sep-15 11:29N 45°26' W 086°52'1122.7
2017-Sep-15 11:00N 45°24' W 086°36'3910.6 200 / 181014.710.8 18.0 18.0
2017-Sep-15 07:17N 45°47' W 085°50'311.5
2017-Sep-15 07:00N 45°49' W 085°47'611.3
2017-Sep-15 06:30N 45°51' W 085°39'1211.1
2017-Sep-15 05:24N 45°53' W 085°22'511.6
2017-Sep-15 04:59N 45°52' W 085°15'611.8
2017-Sep-15 04:30N 45°51' W 085°07'611.8
2017-Sep-15 04:00N 45°51' W 084°59'3221.6
2017-Sep-15 04:00N 45°48' W 085°00'714.2 200 / 111014.7 18.0
2017-Sep-15 03:30N 45°50' W 084°50'611.6
2017-Sep-15 03:00N 45°49' W 084°42'611.6
2017-Sep-15 02:30N 45°45' W 084°35'611.6
2017-Sep-15 01:59N 45°42' W 084°28'510.8
2017-Sep-15 01:30N 45°41' W 084°20'510.9
2017-Sep-15 01:00N 45°40' W 084°13'611.8
2017-Sep-15 00:30N 45°38' W 084°05'612.0
2017-Sep-15 00:00N 45°35' W 083°57'612.0
2017-Sep-14 23:30N 45°32' W 083°50'612.0
2017-Sep-14 23:00N 45°30' W 083°42'612.0
2017-Sep-14 22:30N 45°27' W 083°35'612.0
2017-Sep-14 22:00N 45°24' W 083°27'22 2.6
2017-Sep-14 13:40N 45°03' W 083°24'3 7.4
2017-Sep-14 13:17N 45°01' W 083°20'510.6
2017-Sep-14 12:51N 44°58' W 083°15'411.8
2017-Sep-14 12:30N 45°01' W 083°10'611.0
2017-Sep-14 12:00N 45°06' W 083°08'611.2
2017-Sep-14 11:26N 45°12' W 083°12'611.8
2017-Sep-14 10:56N 45°17' W 083°17'511.8
2017-Sep-14 10:30N 45°21' W 083°21'611.9
2017-Sep-14 10:00N 45°26' W 083°25'612.3
2017-Sep-14 09:31N 45°31' W 083°30'612.1
2017-Sep-14 09:00N 45°37' W 083°35'612.0
2017-Sep-14 08:30N 45°42' W 083°39'612.3
2017-Sep-14 08:00N 45°47' W 083°44'612.2
2017-Sep-14 07:30N 45°52' W 083°49'611.9
2017-Sep-14 07:00N 45°57' W 083°54'611.2
2017-Sep-14 06:30N 46°02' W 083°56'510.4
2017-Sep-14 06:00N 46°06' W 084°01'510.7
2017-Sep-14 05:30N 46°10' W 084°05'5 9.9
2017-Sep-14 05:00N 46°14' W 084°10'4 8.5
2017-Sep-14 04:30N 46°18' W 084°13'4 8.5
2017-Sep-14 04:00N 46°22' W 084°13'6 8.5
2017-Sep-14 03:16N 46°28' W 084°17'2 8.4
2017-Sep-14 03:00N 46°30' W 084°19'2 2.5
2017-Sep-14 02:19N 46°30' W 084°21'1 2.2
2017-Sep-14 01:50N 46°30' W 084°23'2 5.6
2017-Sep-14 01:25N 46°29' W 084°26'12 9.0
2017-Sep-14 00:08N 46°34' W 084°41'9 8.2
2017-Sep-13 23:00N 46°42' W 084°48'1218.7 080 / 131007.510.8 20.5 15.5
2017-Sep-13 22:20N 46°50' W 085°02'13012.5
2017-Sep-13 12:00N 47°54' W 087°48'   1007.9 18.0

Dump ship's entire track history